createdAt,value
2023-03-07T00:01:56.166Z,994.22
2023-03-07T00:04:29.149Z,994.21
2023-03-07T00:07:02.432Z,994.20
2023-03-07T00:09:35.239Z,994.19
2023-03-07T00:12:08.452Z,994.17
2023-03-07T00:14:41.432Z,994.16
2023-03-07T00:17:14.437Z,994.15
2023-03-07T00:19:47.427Z,994.13
2023-03-07T00:22:20.421Z,994.11
2023-03-07T00:24:53.290Z,994.09
2023-03-07T00:27:26.696Z,994.07
2023-03-07T00:30:00.301Z,994.04
2023-03-07T00:32:33.623Z,994.02
2023-03-07T00:35:06.554Z,994.01
2023-03-07T00:37:39.437Z,994.00
2023-03-07T00:40:12.530Z,993.98
2023-03-07T00:42:45.218Z,993.95
2023-03-07T00:45:18.487Z,993.93
2023-03-07T00:47:51.476Z,993.90
2023-03-07T00:50:24.588Z,993.88
2023-03-07T00:52:57.514Z,993.85
2023-03-07T00:55:30.504Z,993.81
2023-03-07T00:58:03.322Z,993.76
2023-03-07T01:00:36.580Z,993.74
2023-03-07T01:03:09.312Z,993.71
2023-03-07T01:05:42.352Z,993.67
2023-03-07T01:08:15.616Z,993.64
2023-03-07T01:10:48.480Z,993.60
2023-03-07T01:13:21.483Z,993.55
2023-03-07T01:15:54.601Z,993.51
2023-03-07T01:18:27.499Z,993.47
2023-03-07T01:21:00.636Z,993.44
2023-03-07T01:23:33.624Z,993.41
2023-03-07T01:26:06.301Z,993.40
2023-03-07T01:28:39.698Z,993.39
2023-03-07T01:31:13.619Z,993.38
2023-03-07T01:33:46.331Z,993.35
2023-03-07T01:36:19.399Z,993.34
2023-03-07T01:38:52.527Z,993.35
2023-03-07T01:41:25.767Z,993.34
2023-03-07T01:44:03.583Z,993.32
2023-03-07T01:46:36.423Z,993.30
2023-03-07T01:49:09.508Z,993.29
2023-03-07T01:51:42.747Z,993.28
2023-03-07T01:54:16.570Z,993.27
2023-03-07T01:56:49.555Z,993.25
2023-03-07T01:59:22.504Z,993.23
2023-03-07T02:01:55.312Z,993.20
2023-03-07T02:04:28.719Z,993.18
2023-03-07T02:07:01.566Z,993.15
2023-03-07T02:09:34.448Z,993.11
2023-03-07T02:12:07.925Z,993.06
2023-03-07T02:14:41.626Z,993.04
2023-03-07T02:17:14.856Z,993.01
2023-03-07T02:19:51.849Z,992.97
2023-03-07T02:22:30.185Z,992.96
2023-03-07T02:25:03.882Z,992.94
2023-03-07T02:27:37.401Z,992.91
2023-03-07T02:30:10.667Z,992.90
2023-03-07T02:32:43.822Z,992.88
2023-03-07T02:35:17.867Z,992.87
2023-03-07T02:37:51.696Z,992.85
2023-03-07T02:40:24.671Z,992.83
2023-03-07T02:42:57.374Z,992.82
2023-03-07T02:45:30.573Z,992.79
2023-03-07T02:48:03.822Z,992.77
2023-03-07T02:50:36.722Z,992.75
2023-03-07T02:53:09.776Z,992.73
2023-03-07T02:55:42.788Z,992.71
2023-03-07T02:58:15.379Z,992.69
2023-03-07T03:00:48.502Z,992.69
2023-03-07T03:03:21.740Z,992.68
2023-03-07T03:05:54.692Z,992.67
2023-03-07T03:08:27.882Z,992.64
2023-03-07T03:11:01.752Z,992.63
2023-03-07T03:13:34.872Z,992.63
2023-03-07T03:16:08.606Z,992.62
2023-03-07T03:18:41.834Z,992.61
2023-03-07T03:21:15.017Z,992.60
2023-03-07T03:23:48.720Z,992.58
2023-03-07T03:26:21.449Z,992.56
2023-03-07T03:28:54.426Z,992.53
2023-03-07T03:31:27.854Z,992.50
2023-03-07T03:34:00.480Z,992.48
2023-03-07T03:36:33.564Z,992.45
2023-03-07T03:39:06.750Z,992.43
2023-03-07T03:41:39.788Z,992.42
2023-03-07T03:44:12.790Z,992.39
2023-03-07T03:46:46.130Z,992.38
2023-03-07T03:49:19.821Z,992.36
2023-03-07T03:51:52.731Z,992.35
2023-03-07T03:54:26.005Z,992.33
2023-03-07T03:56:59.625Z,992.31
2023-03-07T03:59:32.903Z,992.27
2023-03-07T04:02:05.684Z,992.24
2023-03-07T04:04:39.000Z,992.22
2023-03-07T04:07:12.859Z,992.19
2023-03-07T04:09:45.615Z,992.18
2023-03-07T04:12:18.785Z,992.16
2023-03-07T04:14:51.802Z,992.13
2023-03-07T04:17:25.016Z,992.11
2023-03-07T04:19:58.855Z,992.10
2023-03-07T04:22:31.749Z,992.07
2023-03-07T04:25:04.843Z,992.05
2023-03-07T04:27:37.825Z,992.03
2023-03-07T04:30:10.663Z,992.01
2023-03-07T04:32:44.012Z,992.00
2023-03-07T04:35:16.883Z,991.94
2023-03-07T04:37:50.033Z,991.91
2023-03-07T04:40:23.743Z,991.87
2023-03-07T04:42:56.863Z,991.83
2023-03-07T04:45:29.617Z,991.80
2023-03-07T04:48:02.572Z,991.77
2023-03-07T04:50:35.986Z,991.74
2023-03-07T04:53:08.632Z,991.73
2023-03-07T04:55:41.554Z,991.72
2023-03-07T04:58:14.664Z,991.70
2023-03-07T05:00:47.871Z,991.70
2023-03-07T05:03:21.096Z,991.68
2023-03-07T05:05:54.665Z,991.68
2023-03-07T05:08:27.954Z,991.69
2023-03-07T05:11:00.614Z,991.69
2023-03-07T05:13:34.039Z,991.67
2023-03-07T05:16:08.040Z,991.64
2023-03-07T05:18:40.739Z,991.62
2023-03-07T05:21:13.770Z,991.61
2023-03-07T05:23:46.704Z,991.59
2023-03-07T05:26:36.912Z,991.57
2023-03-07T05:29:09.976Z,991.55
2023-03-07T05:31:42.790Z,991.52
2023-03-07T05:34:15.921Z,991.50
2023-03-07T05:36:48.951Z,991.49
2023-03-07T05:39:21.863Z,991.48
2023-03-07T05:41:54.776Z,991.46
2023-03-07T05:44:27.987Z,991.45
2023-03-07T05:47:00.937Z,991.44
2023-03-07T05:49:33.728Z,991.43
2023-03-07T05:52:06.706Z,991.42
2023-03-07T05:54:39.914Z,991.41
2023-03-07T05:57:12.808Z,991.40
2023-03-07T05:59:45.742Z,991.39
2023-03-07T06:02:19.264Z,991.36
2023-03-07T06:04:52.714Z,991.34
2023-03-07T06:07:25.813Z,991.34
2023-03-07T06:09:58.679Z,991.34
2023-03-07T06:12:31.788Z,991.34
2023-03-07T06:15:04.654Z,991.34
2023-03-07T06:17:38.725Z,991.33
2023-03-07T06:20:10.872Z,991.34
2023-03-07T06:22:43.775Z,991.35
2023-03-07T06:25:30.798Z,991.33
2023-03-07T06:28:04.020Z,991.34
2023-03-07T06:30:36.817Z,991.34
2023-03-07T06:33:09.976Z,991.35
2023-03-07T06:35:42.836Z,991.36
2023-03-07T06:38:16.067Z,991.37
2023-03-07T06:40:48.863Z,991.39
2023-03-07T06:43:22.082Z,991.38
2023-03-07T06:45:55.753Z,991.40
2023-03-07T06:48:29.083Z,991.41
2023-03-07T06:51:01.744Z,991.42
2023-03-07T06:53:34.770Z,991.43
2023-03-07T06:56:07.964Z,991.42
2023-03-07T06:58:40.863Z,991.41
2023-03-07T07:01:13.826Z,991.41
2023-03-07T07:03:50.567Z,991.42
2023-03-07T07:06:23.820Z,991.42
2023-03-07T07:08:57.145Z,991.43
2023-03-07T07:11:29.761Z,991.44
2023-03-07T07:14:03.048Z,991.43
2023-03-07T07:16:35.911Z,991.45
2023-03-07T07:19:08.995Z,991.45
2023-03-07T07:21:42.126Z,991.45
2023-03-07T07:24:14.940Z,991.45
2023-03-07T07:26:47.943Z,991.46
2023-03-07T07:29:20.819Z,991.48
2023-03-07T07:31:54.135Z,991.48
2023-03-07T07:34:26.921Z,991.49
2023-03-07T07:36:59.953Z,991.50
2023-03-07T07:39:33.191Z,991.51
2023-03-07T07:42:06.081Z,991.52
2023-03-07T07:44:38.861Z,991.54
2023-03-07T07:47:11.915Z,991.53
2023-03-07T07:49:44.939Z,991.54
2023-03-07T07:52:17.856Z,991.52
2023-03-07T07:54:51.076Z,991.54
2023-03-07T07:57:23.868Z,991.55
2023-03-07T07:59:57.030Z,991.54
2023-03-07T08:02:30.012Z,991.52
2023-03-07T08:05:02.868Z,991.50
2023-03-07T08:07:35.886Z,991.49
2023-03-07T08:10:09.189Z,991.47
2023-03-07T08:12:42.038Z,991.46
2023-03-07T08:15:14.974Z,991.44
2023-03-07T08:17:48.186Z,991.41
2023-03-07T08:20:21.176Z,991.38
2023-03-07T08:22:54.287Z,991.36
2023-03-07T08:25:27.024Z,991.35
2023-03-07T08:27:59.903Z,991.35
2023-03-07T08:30:33.079Z,991.34
2023-03-07T08:33:05.932Z,991.33
2023-03-07T08:35:39.223Z,991.30
2023-03-07T08:38:12.161Z,991.29
2023-03-07T08:40:44.960Z,991.29
2023-03-07T08:43:18.227Z,991.27
2023-03-07T08:45:51.037Z,991.25
2023-03-07T08:48:24.173Z,991.21
2023-03-07T08:50:57.086Z,991.18
2023-03-07T08:53:29.957Z,991.17
2023-03-07T08:56:03.254Z,991.16
2023-03-07T08:58:36.235Z,991.16
2023-03-07T09:01:09.048Z,991.17
2023-03-07T09:03:42.156Z,991.17
2023-03-07T09:06:14.971Z,991.16
2023-03-07T09:08:47.973Z,991.14
2023-03-07T09:11:21.172Z,991.14
2023-03-07T09:13:54.472Z,991.12
2023-03-07T09:16:30.353Z,991.10
2023-03-07T09:19:02.992Z,991.09
2023-03-07T09:21:36.070Z,991.09
2023-03-07T09:24:09.278Z,991.07
2023-03-07T09:26:42.121Z,991.07
2023-03-07T09:29:15.005Z,991.03
2023-03-07T09:31:48.254Z,991.01
2023-03-07T09:34:21.274Z,990.99
2023-03-07T09:36:54.116Z,990.98
2023-03-07T09:39:27.358Z,990.96
2023-03-07T09:42:00.467Z,990.95
2023-03-07T09:44:34.151Z,990.93
2023-03-07T09:47:07.404Z,990.92
2023-03-07T09:49:40.395Z,990.90
2023-03-07T09:52:13.284Z,990.89
2023-03-07T09:54:46.126Z,990.87
2023-03-07T09:57:19.391Z,990.84
2023-03-07T09:59:53.803Z,990.82
2023-03-07T10:02:25.355Z,990.80
2023-03-07T10:04:58.442Z,990.78
2023-03-07T10:07:31.249Z,990.76
2023-03-07T10:10:04.337Z,990.74
2023-03-07T10:12:37.306Z,990.72
2023-03-07T10:15:10.071Z,990.69
2023-03-07T10:17:43.204Z,990.66
2023-03-07T10:20:16.333Z,990.64
2023-03-07T10:22:49.200Z,990.58
2023-03-07T10:25:22.216Z,990.55
2023-03-07T10:27:55.454Z,990.52
2023-03-07T10:30:28.386Z,990.49
2023-03-07T10:33:01.643Z,990.47
2023-03-07T10:35:34.421Z,990.44
2023-03-07T10:38:07.578Z,990.42
2023-03-07T10:40:41.384Z,990.41
2023-03-07T10:43:14.345Z,990.38
2023-03-07T10:45:47.221Z,990.36
2023-03-07T10:48:20.118Z,990.34
2023-03-07T10:50:53.238Z,990.30
2023-03-07T10:53:26.370Z,990.29
2023-03-07T10:55:59.462Z,990.25
2023-03-07T10:58:32.458Z,990.25
2023-03-07T11:01:05.234Z,990.24
2023-03-07T11:03:51.569Z,990.23
2023-03-07T11:06:11.473Z,990.20
2023-03-07T11:08:44.432Z,990.17
2023-03-07T11:11:17.129Z,990.13
2023-03-07T11:13:50.598Z,990.10
2023-03-07T11:16:23.340Z,990.07
2023-03-07T11:18:56.281Z,990.07
2023-03-07T11:21:29.442Z,990.06
2023-03-07T11:24:02.625Z,990.06
2023-03-07T11:26:35.514Z,990.05
2023-03-07T11:29:08.222Z,990.01
2023-03-07T11:31:41.568Z,989.97
2023-03-07T11:34:14.478Z,989.95
2023-03-07T11:36:47.544Z,989.91
2023-03-07T11:39:20.346Z,989.88
2023-03-07T11:41:53.308Z,989.84
2023-03-07T11:44:26.264Z,989.81
2023-03-07T11:46:59.290Z,989.80
2023-03-07T11:49:32.201Z,989.78
2023-03-07T11:52:05.552Z,989.78
2023-03-07T11:54:38.338Z,989.76
2023-03-07T11:57:11.511Z,989.73
2023-03-07T11:59:44.393Z,989.74
2023-03-07T12:02:23.121Z,989.75
2023-03-07T12:04:56.420Z,989.73
2023-03-07T12:07:31.005Z,989.72
2023-03-07T12:10:02.347Z,989.69
2023-03-07T12:12:35.873Z,989.64
2023-03-07T12:15:10.001Z,989.61
2023-03-07T12:17:43.292Z,989.58
2023-03-07T12:20:16.520Z,989.57
2023-03-07T12:22:49.231Z,989.54
2023-03-07T12:25:22.257Z,989.52
2023-03-07T12:27:55.442Z,989.50
2023-03-07T12:30:28.586Z,989.49
2023-03-07T12:33:01.548Z,989.46
2023-03-07T12:35:34.380Z,989.44
2023-03-07T12:38:07.382Z,989.42
2023-03-07T12:40:40.392Z,989.38
2023-03-07T12:43:13.592Z,989.34
2023-03-07T12:45:46.617Z,989.32
2023-03-07T12:48:19.297Z,989.31
2023-03-07T12:50:52.411Z,989.29
2023-03-07T12:53:25.338Z,989.26
2023-03-07T12:55:58.419Z,989.24
2023-03-07T12:58:31.726Z,989.23
2023-03-07T13:01:04.600Z,989.20
2023-03-07T13:03:37.758Z,989.17
2023-03-07T13:06:11.413Z,989.15
2023-03-07T13:08:44.343Z,989.13
2023-03-07T13:11:17.337Z,989.10
2023-03-07T13:13:50.331Z,989.05
2023-03-07T13:16:23.523Z,989.02
2023-03-07T13:18:56.482Z,988.98
2023-03-07T13:21:29.728Z,988.97
2023-03-07T13:24:02.751Z,988.95
2023-03-07T13:26:35.656Z,988.95
2023-03-07T13:29:10.707Z,988.93
2023-03-07T13:31:43.600Z,988.93
2023-03-07T13:34:16.661Z,988.91
2023-03-07T13:36:49.503Z,988.91
2023-03-07T13:39:22.536Z,988.92
2023-03-07T13:41:58.464Z,988.92
2023-03-07T13:44:31.446Z,988.92
2023-03-07T13:47:04.591Z,988.93
2023-03-07T13:49:37.666Z,988.94
2023-03-07T13:52:10.387Z,988.96
2023-03-07T13:54:43.774Z,988.95
2023-03-07T13:57:16.384Z,988.95
2023-03-07T13:59:49.544Z,988.96
2023-03-07T14:02:22.455Z,988.96
2023-03-07T14:04:55.587Z,988.98
2023-03-07T14:07:28.709Z,988.99
2023-03-07T14:10:09.868Z,989.01
2023-03-07T14:12:34.509Z,989.01
2023-03-07T14:15:07.539Z,989.04
2023-03-07T14:17:40.796Z,989.06
2023-03-07T14:20:13.585Z,989.08
2023-03-07T14:22:46.540Z,989.10
2023-03-07T14:25:19.464Z,989.11
2023-03-07T14:27:52.813Z,989.14
2023-03-07T14:30:25.510Z,989.16
2023-03-07T14:32:58.719Z,989.19
2023-03-07T14:35:31.490Z,989.20
2023-03-07T14:38:04.624Z,989.22
2023-03-07T14:40:37.650Z,989.24
2023-03-07T14:43:10.801Z,989.24
2023-03-07T14:45:43.678Z,989.27
2023-03-07T14:48:16.570Z,989.29
2023-03-07T14:50:49.879Z,989.32
2023-03-07T14:53:22.667Z,989.35
2023-03-07T14:55:55.801Z,989.37
2023-03-07T14:58:28.712Z,989.39
2023-03-07T15:01:01.631Z,989.40
2023-03-07T15:03:34.542Z,989.44
2023-03-07T15:06:07.514Z,989.46
2023-03-07T15:08:54.567Z,989.48
2023-03-07T15:11:27.662Z,989.50
2023-03-07T15:14:00.669Z,989.53
2023-03-07T15:16:33.657Z,989.53
2023-03-07T15:19:06.741Z,989.52
2023-03-07T15:21:39.600Z,989.53
2023-03-07T15:24:12.529Z,989.50
2023-03-07T15:26:45.717Z,989.47
2023-03-07T15:29:18.538Z,989.44
2023-03-07T15:31:51.889Z,989.43
2023-03-07T15:34:24.851Z,989.40
2023-03-07T15:36:57.666Z,989.38
2023-03-07T15:39:30.584Z,989.38
2023-03-07T15:42:04.062Z,989.37
2023-03-07T15:44:38.038Z,989.37
2023-03-07T15:47:11.729Z,989.36
2023-03-07T15:49:44.719Z,989.37
2023-03-07T15:52:17.595Z,989.37
2023-03-07T15:54:50.992Z,989.36
2023-03-07T15:57:24.591Z,989.35
2023-03-07T15:59:57.667Z,989.35
2023-03-07T16:02:31.033Z,989.33
2023-03-07T16:05:03.764Z,989.31
2023-03-07T16:07:36.605Z,989.30
2023-03-07T16:10:09.733Z,989.26
2023-03-07T16:12:48.675Z,989.26
2023-03-07T16:15:21.622Z,989.25
2023-03-07T16:17:54.758Z,989.25
2023-03-07T16:20:27.651Z,989.24
2023-03-07T16:23:00.812Z,989.22
2023-03-07T16:25:33.632Z,989.22
2023-03-07T16:28:07.083Z,989.23
2023-03-07T16:30:40.981Z,989.24
2023-03-07T16:33:13.780Z,989.21
2023-03-07T16:35:46.979Z,989.20
2023-03-07T16:38:19.634Z,989.17
2023-03-07T16:40:52.767Z,989.14
2023-03-07T16:43:25.751Z,989.14
2023-03-07T16:45:58.714Z,989.11
2023-03-07T16:48:31.671Z,989.09
2023-03-07T16:51:04.930Z,989.07
2023-03-07T16:53:37.728Z,989.07
2023-03-07T16:56:10.719Z,989.07
2023-03-07T16:58:44.487Z,989.10
2023-03-07T17:01:16.832Z,989.16
2023-03-07T17:03:49.778Z,989.19
2023-03-07T17:06:33.570Z,989.21
2023-03-07T17:08:56.025Z,989.23
2023-03-07T17:11:28.831Z,989.24
2023-03-07T17:14:02.254Z,989.25
2023-03-07T17:16:35.682Z,989.26
2023-03-07T17:19:08.789Z,989.28
2023-03-07T17:21:42.156Z,989.30
2023-03-07T17:24:14.854Z,989.32
2023-03-07T17:26:47.883Z,989.34
2023-03-07T17:29:20.718Z,989.35
2023-03-07T17:31:53.849Z,989.35
2023-03-07T17:34:27.115Z,989.36
2023-03-07T17:37:00.058Z,989.39
2023-03-07T17:39:32.742Z,989.41
2023-03-07T17:42:05.954Z,989.46
2023-03-07T17:44:38.740Z,989.49
2023-03-07T17:47:11.745Z,989.52
2023-03-07T17:49:46.803Z,989.54
2023-03-07T17:52:17.772Z,989.53
2023-03-07T17:54:50.884Z,989.54
2023-03-07T17:57:23.765Z,989.54
2023-03-07T17:59:56.888Z,989.55
2023-03-07T18:02:30.032Z,989.59
2023-03-07T18:05:06.688Z,989.60
2023-03-07T18:07:39.913Z,989.60
2023-03-07T18:10:12.927Z,989.63
2023-03-07T18:12:45.921Z,989.64
2023-03-07T18:15:18.803Z,989.64
2023-03-07T18:17:51.836Z,989.67
2023-03-07T18:20:25.059Z,989.70
2023-03-07T18:22:57.835Z,989.72
2023-03-07T18:25:30.960Z,989.73
2023-03-07T18:28:03.875Z,989.73
2023-03-07T18:30:36.934Z,989.71
2023-03-07T18:33:09.924Z,989.72
2023-03-07T18:35:43.178Z,989.72
2023-03-07T18:38:15.966Z,989.70
2023-03-07T18:40:49.211Z,989.69
2023-03-07T18:43:21.864Z,989.69
2023-03-07T18:45:54.944Z,989.71
2023-03-07T18:48:30.953Z,989.72
2023-03-07T18:51:03.981Z,989.74
2023-03-07T18:53:37.214Z,989.77
2023-03-07T18:56:09.836Z,989.79
2023-03-07T18:58:42.865Z,989.82
2023-03-07T19:01:16.172Z,989.82
2023-03-07T19:03:49.116Z,989.83
2023-03-07T19:06:21.893Z,989.85
2023-03-07T19:08:55.220Z,989.86
2023-03-07T19:11:28.036Z,989.88
2023-03-07T19:14:00.853Z,989.91
2023-03-07T19:16:34.106Z,989.93
2023-03-07T19:19:07.202Z,989.96
2023-03-07T19:21:39.914Z,989.95
2023-03-07T19:24:13.211Z,989.93
2023-03-07T19:26:45.884Z,989.91
2023-03-07T19:29:19.170Z,989.91
2023-03-07T19:31:51.955Z,989.90
2023-03-07T19:34:25.174Z,989.88
2023-03-07T19:36:58.168Z,989.87
2023-03-07T19:39:36.355Z,989.88
2023-03-07T19:42:09.056Z,989.91
2023-03-07T19:44:41.920Z,989.95
2023-03-07T19:47:14.907Z,989.98
2023-03-07T19:49:47.923Z,990.00
2023-03-07T19:52:20.930Z,990.04
2023-03-07T19:54:54.344Z,990.06
2023-03-07T19:57:27.219Z,990.08
2023-03-07T20:00:00.339Z,990.09
2023-03-07T20:02:33.255Z,990.09
2023-03-07T20:05:06.080Z,990.11
2023-03-07T20:07:39.204Z,990.13
2023-03-07T20:13:02.450Z,990.18
2023-03-07T20:15:42.204Z,990.18
2023-03-07T20:20:50.376Z,990.26
2023-03-07T20:23:22.990Z,990.29
2023-03-07T20:28:31.150Z,990.32
2023-03-07T20:31:04.023Z,990.36
2023-03-07T20:33:37.046Z,990.40
2023-03-07T20:36:10.296Z,990.41
2023-03-07T20:38:42.994Z,990.39
2023-03-07T20:41:15.993Z,990.38
2023-03-07T20:43:49.440Z,990.39
2023-03-07T20:46:22.088Z,990.41
2023-03-07T20:48:55.135Z,990.45
2023-03-07T20:51:28.522Z,990.47
2023-03-07T20:54:02.376Z,990.48
2023-03-07T20:56:35.385Z,990.52
2023-03-07T20:59:08.215Z,990.54
2023-03-07T21:01:41.089Z,990.56
2023-03-07T21:04:14.321Z,990.59
2023-03-07T21:06:47.379Z,990.60
2023-03-07T21:09:20.375Z,990.62
2023-03-07T21:11:53.404Z,990.63
2023-03-07T21:14:26.359Z,990.64
2023-03-07T21:16:59.146Z,990.65
2023-03-07T21:19:32.155Z,990.65
2023-03-07T21:22:05.480Z,990.65
2023-03-07T21:24:38.390Z,990.63
2023-03-07T21:27:11.560Z,990.64
2023-03-07T21:29:45.077Z,990.64
2023-03-07T21:32:18.101Z,990.65
2023-03-07T21:34:51.415Z,990.67
2023-03-07T21:37:24.343Z,990.68
2023-03-07T21:39:57.393Z,990.68
2023-03-07T21:42:30.396Z,990.68
2023-03-07T21:45:03.480Z,990.71
2023-03-07T21:47:36.478Z,990.73
2023-03-07T21:50:09.406Z,990.73
2023-03-07T21:52:42.285Z,990.73
2023-03-07T21:55:15.338Z,990.73
2023-03-07T21:57:48.368Z,990.76
2023-03-07T22:00:35.454Z,990.78
2023-03-07T22:03:08.494Z,990.79
2023-03-07T22:05:41.182Z,990.81
2023-03-07T22:08:14.316Z,990.84
2023-03-07T22:10:47.136Z,990.85
2023-03-07T22:13:20.345Z,990.88
2023-03-07T22:15:53.507Z,990.91
2023-03-07T22:18:26.527Z,990.91
2023-03-07T22:20:59.463Z,990.93
2023-03-07T22:23:35.545Z,990.95
2023-03-07T22:26:08.475Z,990.97
2023-03-07T22:28:41.567Z,991.00
2023-03-07T22:31:14.371Z,991.03
2023-03-07T22:33:47.151Z,991.04
2023-03-07T22:36:20.342Z,991.06
2023-03-07T22:38:53.464Z,991.07
2023-03-07T22:41:26.684Z,991.08
2023-03-07T22:44:00.608Z,991.11
2023-03-07T22:46:33.370Z,991.13
2023-03-07T22:49:06.659Z,991.16
2023-03-07T22:51:40.480Z,991.17
2023-03-07T22:54:13.492Z,991.21
2023-03-07T22:56:46.167Z,991.23
2023-03-07T22:59:19.240Z,991.25
2023-03-07T23:01:52.443Z,991.26
2023-03-07T23:04:25.312Z,991.27
2023-03-07T23:06:58.512Z,991.26
2023-03-07T23:09:31.486Z,991.28
2023-03-07T23:12:04.509Z,991.31
2023-03-07T23:14:37.557Z,991.35
2023-03-07T23:17:10.393Z,991.37
2023-03-07T23:19:43.610Z,991.40
2023-03-07T23:22:16.249Z,991.39
2023-03-07T23:24:49.220Z,991.39
2023-03-07T23:27:22.265Z,991.39
2023-03-07T23:29:55.255Z,991.40
2023-03-07T23:32:28.337Z,991.39
2023-03-07T23:35:01.322Z,991.40
2023-03-07T23:37:34.675Z,991.40
2023-03-07T23:40:08.411Z,991.38
2023-03-07T23:42:41.618Z,991.38
2023-03-07T23:45:14.644Z,991.38
2023-03-07T23:47:47.395Z,991.41
2023-03-07T23:50:20.261Z,991.42
2023-03-07T23:52:53.602Z,991.44
2023-03-07T23:55:26.540Z,991.43
2023-03-07T23:57:59.386Z,991.44
